| time (UTC) | temp F | wind direction | speed knots | gust knots | rain 1hr in | rain 24hr in | rain mn in | humidity % | barometer mb |
| 20260903101033 | 72 | 262 | 2.6 | 5.2 | 0.00 | 0.25 | 0.08 | 85 | 1010.0 |
| 20260903100029 | 71 | 258 | 2.6 | 5.2 | 0.00 | 0.25 | 0.08 | 85 | 1009.9 |
| 20260903095047 | 71 | 262 | 2.6 | 5.2 | 0.00 | 0.25 | 0.08 | 85 | 1009.9 |
| 20260903094024 | 71 | 271 | 1.7 | 3.5 | 0.00 | 0.25 | 0.08 | 85 | 1010.0 |
| 20260903093020 | 71 | 358 | 1.7 | 3.5 | 0.00 | 0.25 | 0.08 | 84 | 1009.9 |
| 20260903092017 | 71 | 14 | 0.9 | 1.7 | 0.00 | 0.25 | 0.08 | 85 | 1009.7 |
| 20260903091034 | 72 | 5 | 0.9 | 2.6 | 0.00 | 0.25 | 0.08 | 84 | 1009.7 |
| 20260903090031 | 72 | 323 | 1.7 | 3.5 | 0.00 | 0.25 | 0.08 | 84 | 1009.6 |
| 20260903085027 | 72 | 326 | 1.7 | 3.5 | 0.00 | 0.25 | 0.08 | 84 | 1009.4 |
| 20260903084024 | 72 | 313 | 2.6 | 6.1 | 0.00 | 0.25 | 0.08 | 84 | 1009.5 |
| 20260903083021 | 72 | 353 | 1.7 | 3.5 | 0.00 | 0.25 | 0.08 | 84 | 1009.4 |
| 20260903082018 | 72 | 2 | 0.9 | 2.6 | 0.02 | 0.25 | 0.08 | 84 | 1009.3 |
| 20260903081034 | 72 | 310 | 2.6 | 6.1 | 0.02 | 0.25 | 0.08 | 84 | 1009.2 |
| 20260903080032 | 71 | 275 | 3.5 | 8.7 | 0.02 | 0.25 | 0.08 | 84 | 1009.5 |
| 20260903075028 | 71 | 288 | 3.5 | 7.0 | 0.02 | 0.25 | 0.08 | 84 | 1009.2 |
| 20260903074025 | 71 | 345 | 0.9 | 1.7 | 0.03 | 0.25 | 0.08 | 84 | 1009.0 |
| 20260903073022 | 71 | 38 | 1.7 | 3.5 | 0.04 | 0.25 | 0.08 | 84 | 1009.0 |
| 20260903072018 | 71 | 297 | 3.5 | 7.0 | 0.02 | 0.23 | 0.06 | 84 | 1009.4 |
| 20260903071015 | 72 | 295 | 3.5 | 8.7 | 0.02 | 0.23 | 0.06 | 84 | 1009.4 |
| 20260903070032 | 72 | 308 | 3.5 | 7.0 | 0.02 | 0.23 | 0.06 | 85 | 1009.7 |
| 20260903065029 | 72 | 297 | 4.3 | 7.0 | 0.02 | 0.23 | 0.06 | 85 | 1010.0 |
| 20260903064026 | 72 | 337 | 3.5 | 7.0 | 0.01 | 0.22 | 0.06 | 84 | 1009.6 |
| 20260903063023 | 72 | 1 | 0.9 | 2.6 | 0.00 | 0.22 | 0.05 | 84 | 1009.3 |
| 20260903062021 | 72 | 359 | 0.0 | 0.9 | 0.01 | 0.22 | 0.05 | 84 | 1009.3 |
| 20260903061016 | 72 | 359 | 0.9 | 1.7 | 0.05 | 0.22 | 0.05 | 83 | 1009.3 |
| 20260903060033 | 72 | 5 | 0.9 | 1.7 | 0.05 | 0.22 | 0.05 | 83 | 1009.5 |
| 20260903055032 | 72 | 3 | 0.9 | 2.6 | 0.05 | 0.22 | 0.05 | 83 | 1009.5 |
| 20260903054028 | 72 | 38 | 0.0 | 0.9 | 0.05 | 0.22 | 0.05 | 83 | 1009.5 |
| 20260903053024 | 72 | 38 | 0.9 | 1.7 | 0.05 | 0.22 | 0.05 | 82 | 1009.5 |
| 20260903052020 | 73 | 1 | 1.7 | 3.5 | 0.04 | 0.21 | 0.04 | 82 | 1010.4 |
| 20260903051017 | 73 | 36 | 0.0 | 1.7 | 0.00 | 0.17 | 0.00 | 82 | 1010.1 |
| 20260903050034 | 73 | 36 | 0.9 | 1.7 | 0.00 | 0.17 | 0.00 | 81 | 1010.1 |
| 20260903045031 | 73 | 36 | 1.7 | 3.5 | 0.00 | 0.17 | 0.00 | 81 | 1010.2 |
| 20260903044028 | 73 | 18 | 0.9 | 1.7 | 0.02 | 0.17 | 0.00 | 81 | 1010.1 |
| 20260903043017 | 73 | 3 | 1.7 | 2.6 | 0.06 | 0.17 | 0.00 | 81 | 1009.9 |
| 20260903042034 | 74 | 25 | 0.0 | 1.7 | 0.15 | 0.17 | 0.00 | 80 | 1009.7 |
| 20260903041031 | 74 | 18 | 0.9 | 1.7 | 0.17 | 0.17 | 0.00 | 79 | 1010.0 |
| 20260903040028 | 74 | 35 | 0.9 | 2.6 | 0.17 | 0.17 | 0.22 | 78 | 1010.1 |
| 20260903035024 | 74 | 23 | 0.0 | 1.7 | 0.17 | 0.17 | 0.21 | 78 | 1010.4 |
| 20260903034023 | 75 | 32 | 0.9 | 2.6 | 0.15 | 0.15 | 0.20 | 77 | 1010.4 |
| 20260903033034 | 76 | 21 | 0.9 | 1.7 | 0.12 | 0.12 | 0.12 | 75 | 1009.4 |
| 20260903032049 | 76 | 24 | 1.7 | 3.5 | 0.03 | 0.03 | 0.03 | 75 | 1009.6 |
| 20260903031045 | 76 | 32 | 1.7 | 5.2 | 0.00 | 0.00 | 0.00 | 75 | 1008.8 |
| 20260903030021 | 76 | 45 | 1.7 | 5.2 | 0.00 | 0.00 | 0.00 | 75 | 1008.8 |
| 20260903025017 | 77 | 39 | 2.6 | 7.0 | 0.00 | 0.00 | 0.00 | 75 | 1008.1 |
| 20260903024055 | 77 | 29 | 1.7 | 5.2 | 0.00 | 0.00 | 0.00 | 74 | 1008.2 |
| 20260903023030 | 77 | 17 | 0.9 | 3.5 | 0.00 | 0.00 | 0.00 | 74 | 1008.6 |
| 20260903022026 | 77 | 6 | 1.7 | 3.5 | 0.00 | 0.00 | 0.00 | 74 | 1009.0 |
| 20260903021024 | 77 | 11 | 1.7 | 5.2 | 0.00 | 0.00 | 0.00 | 73 | 1008.9 |
| 20260903020018 | 78 | 39 | 1.7 | 3.5 | 0.00 | 0.00 | 0.00 | 72 | 1008.8 |
| 20260903015035 | 79 | 27 | 0.9 | 3.5 | 0.00 | 0.00 | 0.00 | 72 | 1008.8 |
| 20260903014031 | 79 | 58 | 3.5 | 6.1 | 0.00 | 0.00 | 0.00 | 71 | 1008.7 |
| 20260903013047 | 79 | 32 | 1.7 | 3.5 | 0.00 | 0.00 | 0.00 | 70 | 1008.5 |
| 20260903012023 | 80 | 32 | 0.9 | 3.5 | 0.00 | 0.00 | 0.00 | 69 | 1008.6 |
| 20260903011521 | 80 | 40 | 1.7 | 7.8 | 0.00 | 0.00 | 0.00 | 68 | 1008.4 |
| 20260903010536 | 81 | 44 | 0.9 | 2.6 | 0.00 | 0.00 | 0.00 | 66 | 1008.3 |
| 20260903005552 | 82 | 54 | 2.6 | 6.1 | 0.00 | 0.00 | 0.00 | 65 | 1008.4 |
| 20260903004528 | 83 | 48 | 2.6 | 5.2 | 0.00 | 0.00 | 0.00 | 63 | 1008.3 |
| 20260903003524 | 84 | 39 | 1.7 | 2.6 | 0.00 | 0.00 | 0.00 | 62 | 1007.9 |
| 20260903002541 | 86 | 30 | 0.9 | 3.5 | 0.00 | 0.00 | 0.00 | 58 | 1007.8 |
| 20260903001536 | 88 | 46 | 1.7 | 5.2 | 0.00 | 0.00 | 0.00 | 55 | 1007.7 |
| 20260903000533 | 90 | 358 | 0.0 | 0.9 | 0.00 | 0.00 | 0.00 | 52 | 1007.7 |
| 20260902235529 | 91 | 328 | 0.9 | 2.6 | 0.00 | 0.00 | 0.00 | 51 | 1007.7 |
| 20260902234605 | 91 | 322 | 1.7 | 5.2 | 0.00 | 0.00 | 0.00 | 50 | 1007.9 |
| 20260902233521 | 92 | 292 | 5.2 | 12.2 | 0.00 | 0.00 | 0.00 | 49 | 1008.1 |
| 20260902232516 | 92 | 299 | 5.2 | 12.2 | 0.00 | 0.00 | 0.00 | 49 | 1008.0 |
| 20260902231553 | 92 | 293 | 6.1 | 14.8 | 0.00 | 0.00 | 0.00 | 50 | 1008.0 |
| 20260902230531 | 92 | 289 | 4.3 | 8.7 | 0.00 | 0.00 | 0.00 | 49 | 1007.8 |
| 20260902225525 | 92 | 287 | 6.1 | 11.3 | 0.00 | 0.00 | 0.00 | 49 | 1007.6 |
| 20260902224541 | 92 | 285 | 6.1 | 13.9 | 0.00 | 0.00 | 0.00 | 48 | 1007.3 |
| 20260902223519 | 92 | 278 | 7.0 | 14.8 | 0.00 | 0.00 | 0.00 | 48 | 1007.3 |
| 20260902222539 | 93 | 286 | 6.1 | 11.3 | 0.00 | 0.00 | 0.00 | 48 | 1007.4 |
| 20260902221530 | 93 | 264 | 7.0 | 13.9 | 0.00 | 0.00 | 0.00 | 47 | 1007.4 |
| 20260902220526 | 93 | 291 | 5.2 | 12.2 | 0.00 | 0.00 | 0.00 | 48 | 1007.2 |
| 20260902215522 | 94 | 295 | 5.2 | 13.0 | 0.00 | 0.00 | 0.00 | 47 | 1007.3 |
| 20260902214518 | 94 | 279 | 7.0 | 15.6 | 0.00 | 0.00 | 0.00 | 47 | 1007.5 |
| 20260902213535 | 94 | 293 | 7.0 | 11.3 | 0.00 | 0.00 | 0.00 | 47 | 1007.4 |
| 20260902212551 | 93 | 281 | 7.0 | 12.2 | 0.00 | 0.00 | 0.00 | 47 | 1007.4 |
| 20260902211527 | 94 | 275 | 6.1 | 12.2 | 0.00 | 0.00 | 0.00 | 47 | 1007.4 |
| 20260902210525 | 94 | 290 | 5.2 | 11.3 | 0.00 | 0.00 | 0.00 | 47 | 1007.3 |
| 20260902205519 | 94 | 295 | 5.2 | 12.2 | 0.00 | 0.00 | 0.00 | 46 | 1007.5 |
| 20260902204515 | 94 | 307 | 4.3 | 11.3 | 0.00 | 0.00 | 0.00 | 46 | 1007.4 |
| 20260902203532 | 95 | 276 | 7.8 | 13.0 | 0.00 | 0.00 | 0.00 | 43 | 1007.5 |
| 20260902202527 | 97 | 269 | 7.8 | 16.5 | 0.00 | 0.00 | 0.00 | 43 | 1007.7 |
| 20260902201523 | 96 | 291 | 6.1 | 13.0 | 0.00 | 0.00 | 0.00 | 43 | 1007.8 |
| 20260902200519 | 96 | 276 | 7.8 | 14.8 | 0.00 | 0.00 | 0.00 | 43 | 1007.9 |
| 20260902195516 | 94 | 284 | 7.0 | 12.2 | 0.00 | 0.00 | 0.00 | 47 | 1008.0 |
| 20260902194532 | 94 | 303 | 5.2 | 11.3 | 0.00 | 0.00 | 0.00 | 47 | 1008.1 |
| 20260902193528 | 95 | 298 | 4.3 | 9.6 | 0.00 | 0.00 | 0.00 | 47 | 1008.4 |
| 20260902192524 | 95 | 292 | 5.2 | 13.0 | 0.00 | 0.00 | 0.00 | 45 | 1008.5 |
| 20260902191520 | 95 | 272 | 7.0 | 14.8 | 0.00 | 0.00 | 0.00 | 48 | 1008.6 |
| 20260902190516 | 95 | 274 | 6.1 | 13.0 | 0.00 | 0.00 | 0.00 | 49 | 1008.6 |
| 20260902185533 | 95 | 265 | 6.1 | 13.0 | 0.00 | 0.00 | 0.00 | 49 | 1008.8 |
| 20260902184549 | 95 | 332 | 4.3 | 12.2 | 0.00 | 0.00 | 0.00 | 51 | 1008.5 |
| 20260902183525 | 94 | 327 | 5.2 | 13.0 | 0.00 | 0.00 | 0.00 | 52 | 1008.7 |
| 20260902182523 | 94 | 337 | 5.2 | 8.7 | 0.00 | 0.00 | 0.00 | 51 | 1008.8 |
| 20260902181517 | 94 | 336 | 4.3 | 8.7 | 0.00 | 0.00 | 0.00 | 52 | 1009.0 |
| 20260902180533 | 93 | 359 | 4.3 | 7.8 | 0.00 | 0.00 | 0.00 | 54 | 1009.3 |
| 20260902175529 | 92 | 3 | 5.2 | 9.6 | 0.00 | 0.00 | 0.00 | 56 | 1009.4 |
| 20260902174525 | 91 | 2 | 2.6 | 7.0 | 0.00 | 0.00 | 0.00 | 55 | 1009.4 |
| 20260902173522 | 93 | 1 | 3.5 | 7.0 | 0.00 | 0.00 | 0.00 | 53 | 1009.5 |
| 20260902172518 | 94 | 357 | 4.3 | 8.7 | 0.00 | 0.00 | 0.00 | 52 | 1009.6 |
| 20260902171554 | 93 | 352 | 5.2 | 12.2 | 0.00 | 0.00 | 0.00 | 52 | 1009.7 |
| 20260902170532 | 92 | 194 | 6.1 | 14.8 | 0.00 | 0.00 | 0.00 | 55 | 1009.9 |
| 20260902165526 | 92 | 107 | 2.6 | 8.7 | 0.00 | 0.00 | 0.00 | 62 | 1009.9 |
| 20260902164523 | 92 | 104 | 3.5 | 6.1 | 0.00 | 0.00 | 0.00 | 63 | 1010.1 |
| 20260902163522 | 91 | 143 | 4.3 | 12.2 | 0.00 | 0.00 | 0.00 | 63 | 1009.9 |
| 20260902162535 | 90 | 98 | 1.7 | 5.2 | 0.00 | 0.00 | 0.00 | 68 | 1010.3 |
| 20260902161531 | 90 | 103 | 2.6 | 6.1 | 0.00 | 0.00 | 0.00 | 68 | 1010.3 |
| 20260902160527 | 89 | 107 | 2.6 | 7.8 | 0.00 | 0.00 | 0.00 | 68 | 1010.4 |
| 20260902155524 | 88 | 98 | 2.6 | 7.8 | 0.00 | 0.00 | 0.00 | 70 | 1010.5 |
| 20260902154520 | 88 | 104 | 3.5 | 7.0 | 0.00 | 0.00 | 0.00 | 70 | 1010.4 |
| 20260902153516 | 88 | 101 | 2.6 | 5.2 | 0.00 | 0.00 | 0.00 | 71 | 1010.5 |
| 20260902152532 | 88 | 103 | 3.5 | 6.1 | 0.00 | 0.00 | 0.00 | 71 | 1010.5 |
| 20260902151548 | 87 | 99 | 1.7 | 3.5 | 0.00 | 0.00 | 0.00 | 72 | 1010.4 |
| 20260902150525 | 87 | 150 | 3.5 | 8.7 | 0.00 | 0.00 | 0.00 | 72 | 1010.4 |
| 20260902145521 | 86 | 146 | 3.5 | 7.0 | 0.00 | 0.00 | 0.00 | 74 | 1010.4 |
| 20260902144517 | 85 | 166 | 3.5 | 8.7 | 0.00 | 0.00 | 0.00 | 75 | 1010.4 |
| 20260902143533 | 85 | 100 | 0.9 | 3.5 | 0.00 | 0.00 | 0.00 | 76 | 1010.3 |
| 20260902142529 | 84 | 167 | 2.6 | 7.0 | 0.00 | 0.00 | 0.00 | 77 | 1010.5 |
| 20260902141526 | 84 | 100 | 0.9 | 1.7 | 0.00 | 0.00 | 0.00 | 77 | 1010.4 |
| 20260902140523 | 83 | 181 | 3.5 | 7.8 | 0.00 | 0.00 | 0.00 | 78 | 1010.4 |
| 20260902135519 | 83 | 150 | 3.5 | 7.8 | 0.00 | 0.00 | 0.00 | 79 | 1010.6 |
| 20260902134534 | 82 | 160 | 2.6 | 6.1 | 0.00 | 0.00 | 0.00 | 80 | 1010.4 |
| 20260902133530 | 81 | 143 | 2.6 | 7.0 | 0.00 | 0.00 | 0.00 | 81 | 1010.5 |
| 20260902132526 | 81 | 123 | 1.7 | 5.2 | 0.00 | 0.00 | 0.00 | 82 | 1010.5 |
| 20260902131543 | 80 | 154 | 3.5 | 7.0 | 0.00 | 0.00 | 0.00 | 82 | 1010.4 |
| 20260902130519 | 80 | 137 | 2.6 | 7.0 | 0.00 | 0.00 | 0.00 | 83 | 1010.4 |
| 20260902125555 | 79 | 145 | 3.5 | 7.0 | 0.00 | 0.00 | 0.00 | 83 | 1010.4 |
| 20260902124611 | 79 | 130 | 2.6 | 7.0 | 0.00 | 0.00 | 0.00 | 84 | 1010.3 |
| 20260902123527 | 78 | 134 | 3.5 | 7.0 | 0.00 | 0.00 | 0.00 | 84 | 1010.3 |
| 20260902122544 | 78 | 161 | 3.5 | 8.7 | 0.00 | 0.00 | 0.00 | 84 | 1010.3 |
| 20260902121520 | 78 | 143 | 3.5 | 6.1 | 0.00 | 0.00 | 0.00 | 84 | 1010.3 |
| 20260902120516 | 78 | 130 | 2.6 | 7.0 | 0.00 | 0.00 | 0.00 | 84 | 1010.2 |
| 20260902115553 | 78 | 107 | 2.6 | 5.2 | 0.00 | 0.00 | 0.00 | 84 | 1010.1 |
| 20260902114530 | 78 | 110 | 2.6 | 5.2 | 0.00 | 0.00 | 0.00 | 84 | 1010.1 |
| 20260902113525 | 78 | 113 | 2.6 | 6.1 | 0.00 | 0.00 | 0.00 | 84 | 1010.1 |
| 20260902112521 | 78 | 170 | 3.5 | 6.1 | 0.00 | 0.00 | 0.00 | 84 | 1010.3 |
| 20260902111517 | 78 | 140 | 2.6 | 7.0 | 0.00 | 0.00 | 0.00 | 84 | 1010.3 |
| 20260902110634 | 78 | 137 | 2.6 | 3.5 | 0.00 | 0.00 | 0.00 | 84 | 1010.4 |
| 20260902105529 | 78 | 154 | 3.5 | 7.0 | 0.00 | 0.00 | 0.00 | 85 | 1010.4 |
| 20260902104547 | 77 | 120 | 2.6 | 6.1 | 0.00 | 0.00 | 0.00 | 85 | 1010.2 |
| 20260902103521 | 77 | 119 | 2.6 | 7.0 | 0.00 | 0.00 | 0.00 | 85 | 1010.0 |
| 20260902102518 | 77 | 120 | 0.9 | 5.2 | 0.00 | 0.00 | 0.00 | 85 | 1010.0 |
| 20260902101534 | 77 | 107 | 0.9 | 1.7 | 0.00 | 0.00 | 0.00 | 85 | 1010.0 |